createdAt,value
2022-11-04T00:01:43.562Z,13.65
2022-11-04T00:04:29.352Z,15.85
2022-11-04T00:07:33.381Z,7.10
2022-11-04T00:10:38.878Z,13.38
2022-11-04T00:13:24.644Z,18.23
2022-11-04T00:16:29.268Z,3.45
2022-11-04T00:19:15.084Z,17.08
2022-11-04T00:22:19.201Z,11.35
2022-11-04T00:25:25.083Z,8.90
2022-11-04T00:28:31.243Z,17.75
2022-11-04T00:31:35.027Z,8.50
2022-11-04T00:34:20.302Z,15.75
2022-11-04T00:37:06.716Z,5.18
2022-11-04T00:39:52.332Z,6.60
2022-11-04T00:42:38.151Z,8.73
2022-11-04T00:45:23.958Z,19.23
2022-11-04T00:48:10.313Z,7.75
2022-11-04T00:50:55.737Z,10.23
2022-11-04T00:53:41.302Z,8.52
2022-11-04T00:56:26.977Z,8.90
2022-11-04T00:59:14.558Z,8.50
2022-11-04T01:02:00.769Z,5.63
2022-11-04T01:04:47.471Z,4.70
2022-11-04T01:07:33.325Z,5.57
2022-11-04T01:10:18.944Z,3.30
2022-11-04T01:13:04.535Z,9.10
2022-11-04T01:15:50.018Z,12.80
2022-11-04T01:18:36.190Z,13.93
2022-11-04T01:21:21.882Z,11.00
2022-11-04T01:24:07.281Z,4.43
2022-11-04T01:26:52.798Z,4.88
2022-11-04T01:29:38.845Z,5.60
2022-11-04T01:32:24.297Z,0.25
2022-11-04T01:35:10.066Z,7.28
2022-11-04T01:37:55.851Z,4.93
2022-11-04T01:40:41.442Z,5.93
2022-11-04T01:44:28.557Z,5.25
2022-11-04T01:47:21.704Z,8.60
2022-11-04T01:50:14.090Z,8.70
2022-11-04T01:53:08.179Z,8.98
2022-11-04T01:55:59.368Z,10.68
2022-11-04T01:58:52.315Z,2.65
2022-11-04T02:01:38.195Z,1.20
2022-11-04T02:04:27.614Z,0.60
2022-11-04T02:07:13.485Z,10.07
2022-11-04T02:09:59.775Z,2.30
2022-11-04T02:12:51.016Z,5.20
2022-11-04T02:16:11.148Z,3.25
2022-11-04T02:19:30.596Z,8.73
2022-11-04T02:22:54.103Z,1.98
2022-11-04T02:26:06.080Z,2.58
2022-11-04T02:29:19.937Z,3.15
2022-11-04T02:32:28.517Z,3.80
2022-11-04T02:35:17.227Z,2.15
2022-11-04T02:38:15.164Z,1.38
2022-11-04T02:41:11.607Z,0.57
2022-11-04T02:44:14.189Z,0.10
2022-11-04T02:47:02.880Z,0.20
2022-11-04T02:49:58.453Z,2.22
2022-11-04T02:53:00.797Z,2.72
2022-11-04T02:55:50.854Z,2.38
2022-11-04T02:58:52.715Z,0.10
2022-11-04T03:01:42.867Z,0.10
2022-11-04T03:04:33.412Z,0.22
2022-11-04T03:07:25.646Z,0.30
2022-11-04T03:10:17.687Z,0.10
2022-11-04T03:13:06.808Z,0.10
2022-11-04T03:16:01.188Z,0.40
2022-11-04T03:18:49.737Z,0.60
2022-11-04T03:21:40.812Z,1.05
2022-11-04T03:24:27.015Z,0.22
2022-11-04T03:27:46.430Z,0.28
2022-11-04T03:30:54.426Z,0.10
2022-11-04T03:33:50.288Z,1.95
2022-11-04T03:36:35.481Z,0.30
2022-11-04T03:39:21.081Z,0.15
2022-11-04T03:42:30.790Z,0.20
2022-11-04T03:45:16.808Z,1.60
2022-11-04T03:48:03.492Z,0.80
2022-11-04T03:50:50.887Z,0.10
2022-11-04T03:53:36.829Z,0.45
2022-11-04T03:56:41.297Z,1.30
2022-11-04T03:59:36.122Z,0.88
2022-11-04T04:03:04.518Z,2.17
2022-11-04T04:06:09.210Z,0.10
2022-11-04T04:09:20.257Z,2.08
2022-11-04T04:12:17.132Z,4.25
2022-11-04T04:15:15.488Z,3.85
2022-11-04T04:18:08.204Z,8.75
2022-11-04T04:20:56.399Z,5.47
2022-11-04T04:24:02.354Z,0.88
2022-11-04T04:27:08.535Z,2.38
2022-11-04T04:29:54.478Z,0.47
2022-11-04T04:32:46.958Z,0.10
2022-11-04T04:36:02.093Z,2.40
2022-11-04T04:39:06.573Z,0.10
2022-11-04T04:42:12.495Z,0.10
2022-11-04T04:45:01.660Z,3.70
2022-11-04T04:47:47.429Z,4.05
2022-11-04T04:50:37.335Z,0.10
2022-11-04T04:53:23.613Z,0.88
2022-11-04T04:56:09.126Z,2.35
2022-11-04T04:58:54.595Z,1.77
2022-11-04T05:01:40.250Z,2.85
2022-11-04T05:04:26.096Z,4.78
2022-11-04T05:07:11.556Z,3.67
2022-11-04T05:09:57.902Z,2.05
2022-11-04T05:13:02.498Z,1.92
2022-11-04T05:15:47.732Z,2.42
2022-11-04T05:18:33.463Z,0.82
2022-11-04T05:21:19.293Z,0.28
2022-11-04T05:24:05.096Z,0.35
2022-11-04T05:26:50.977Z,0.20
2022-11-04T05:29:36.463Z,0.50
2022-11-04T05:32:21.930Z,0.25
2022-11-04T05:35:07.687Z,0.30
2022-11-04T05:37:54.792Z,0.40
2022-11-04T05:40:40.595Z,0.10
2022-11-04T05:43:27.715Z,0.20
2022-11-04T05:46:13.018Z,0.68
2022-11-04T05:48:58.668Z,0.10
2022-11-04T05:51:44.687Z,0.22
2022-11-04T05:54:30.373Z,0.20
2022-11-04T05:57:15.745Z,0.65
2022-11-04T06:00:01.259Z,0.38
2022-11-04T06:02:47.131Z,0.20
2022-11-04T06:05:32.790Z,0.10
2022-11-04T06:08:18.428Z,0.20
2022-11-04T06:11:05.355Z,0.20
2022-11-04T06:13:51.244Z,0.20
2022-11-04T06:16:37.062Z,0.10
2022-11-04T06:19:22.417Z,0.20
2022-11-04T06:22:09.624Z,0.10
2022-11-04T06:24:55.524Z,0.10
2022-11-04T06:27:41.336Z,0.35
2022-11-04T06:30:27.082Z,0.20
2022-11-04T06:33:12.630Z,0.10
2022-11-04T06:35:59.115Z,0.10
2022-11-04T06:38:45.273Z,0.20
2022-11-04T06:41:31.188Z,0.20
2022-11-04T06:44:16.995Z,0.15
2022-11-04T06:47:02.882Z,0.10
2022-11-04T06:49:48.385Z,0.10
2022-11-04T06:52:38.046Z,0.15
2022-11-04T06:55:27.332Z,0.30
2022-11-04T06:58:12.873Z,0.10
2022-11-04T07:00:58.568Z,0.10
2022-11-04T07:03:44.828Z,0.20
2022-11-04T07:06:30.418Z,0.25
2022-11-04T07:09:16.261Z,0.10
2022-11-04T07:12:05.044Z,0.10
2022-11-04T07:14:51.484Z,0.10
2022-11-04T07:17:37.265Z,0.20
2022-11-04T07:20:23.096Z,0.10
2022-11-04T07:23:08.535Z,0.20
2022-11-04T07:25:59.495Z,0.10
2022-11-04T07:28:46.010Z,0.10
2022-11-04T07:31:31.774Z,0.10
2022-11-04T07:34:17.251Z,0.13
2022-11-04T07:37:03.009Z,0.10
2022-11-04T07:39:48.687Z,0.38
2022-11-04T07:42:34.344Z,0.22
2022-11-04T07:45:25.742Z,0.30
2022-11-04T07:48:11.648Z,0.73
2022-11-04T07:51:01.444Z,0.20
2022-11-04T07:53:47.431Z,0.10
2022-11-04T07:56:33.409Z,0.30
2022-11-04T07:59:20.146Z,0.10
2022-11-04T08:02:06.081Z,0.15
2022-11-04T08:04:51.810Z,0.10
2022-11-04T08:07:37.418Z,0.20
2022-11-04T08:10:24.512Z,0.28
2022-11-04T08:13:10.671Z,0.32
2022-11-04T08:15:57.729Z,0.20
2022-11-04T08:18:43.944Z,0.20
2022-11-04T08:21:31.674Z,0.32
2022-11-04T08:24:17.189Z,0.10
2022-11-04T08:27:04.861Z,0.10
2022-11-04T08:29:50.157Z,0.17
2022-11-04T08:32:36.006Z,0.20
2022-11-04T08:35:21.595Z,0.10
2022-11-04T08:38:07.139Z,0.10
2022-11-04T08:40:58.593Z,0.10
2022-11-04T08:43:46.621Z,0.20
2022-11-04T08:46:37.470Z,0.20
2022-11-04T08:49:22.940Z,0.10
2022-11-04T08:52:10.063Z,0.30
2022-11-04T08:54:57.437Z,0.20
2022-11-04T08:57:43.552Z,0.45
2022-11-04T09:00:29.499Z,0.20
2022-11-04T09:03:15.604Z,0.10
2022-11-04T09:06:01.677Z,0.20
2022-11-04T09:08:49.293Z,0.30
2022-11-04T09:11:39.611Z,0.20
2022-11-04T09:14:25.572Z,0.10
2022-11-04T09:17:11.016Z,0.10
2022-11-04T09:19:57.160Z,0.10
2022-11-04T09:22:45.717Z,0.20
2022-11-04T09:25:33.180Z,0.20
2022-11-04T09:28:18.643Z,0.20
2022-11-04T09:31:15.043Z,0.10
2022-11-04T09:34:00.939Z,0.10
2022-11-04T09:36:47.558Z,0.20
2022-11-04T09:39:35.773Z,0.20
2022-11-04T09:42:46.243Z,0.20
2022-11-04T09:45:33.328Z,0.10
2022-11-04T09:48:38.700Z,0.25
2022-11-04T09:51:52.542Z,0.10
2022-11-04T09:54:47.104Z,0.43
2022-11-04T09:57:33.650Z,0.17
2022-11-04T10:00:20.289Z,0.20
2022-11-04T10:03:10.109Z,0.10
2022-11-04T10:06:10.797Z,0.10
2022-11-04T10:09:32.163Z,0.20
2022-11-04T10:12:23.433Z,0.10
2022-11-04T10:15:27.971Z,0.35
2022-11-04T10:18:42.787Z,0.10
2022-11-04T10:21:51.451Z,0.20
2022-11-04T10:24:49.147Z,0.10
2022-11-04T10:27:38.577Z,0.13
2022-11-04T10:30:29.337Z,0.20
2022-11-04T10:33:36.780Z,0.20
2022-11-04T10:36:25.204Z,0.20
2022-11-04T10:39:20.989Z,0.20
2022-11-04T10:42:06.591Z,0.10
2022-11-04T10:44:53.000Z,0.10
2022-11-04T10:47:46.755Z,0.20
2022-11-04T10:50:38.931Z,0.40
2022-11-04T10:53:28.169Z,0.10
2022-11-04T10:56:25.657Z,0.10
2022-11-04T10:59:30.350Z,0.10
2022-11-04T11:02:16.544Z,0.10
2022-11-04T11:05:20.368Z,0.35
2022-11-04T11:08:25.862Z,0.20
2022-11-04T11:11:13.116Z,0.10
2022-11-04T11:13:58.823Z,0.20
2022-11-04T11:16:45.754Z,0.10
2022-11-04T11:19:59.255Z,0.20
2022-11-04T11:22:46.957Z,1.65
2022-11-04T11:25:33.914Z,0.30
2022-11-04T11:28:25.206Z,0.20
2022-11-04T11:31:23.395Z,0.10
2022-11-04T11:34:29.254Z,0.20
2022-11-04T11:37:24.674Z,1.60
2022-11-04T11:40:28.017Z,0.20
2022-11-04T11:43:24.322Z,0.10
2022-11-04T11:46:12.229Z,0.10
2022-11-04T11:49:03.945Z,0.10
2022-11-04T11:51:50.803Z,0.10
2022-11-04T11:54:39.208Z,0.20
2022-11-04T11:57:45.199Z,0.10
2022-11-04T12:10:49.711Z,0.10
2022-11-04T12:13:53.157Z,0.10
2022-11-04T12:16:59.035Z,0.10
2022-11-04T12:20:14.813Z,0.20
2022-11-04T12:23:11.158Z,0.13
2022-11-04T12:26:22.096Z,0.30
2022-11-04T12:29:10.692Z,1.48
2022-11-04T12:32:12.071Z,0.15
2022-11-04T12:35:00.682Z,0.20
2022-11-04T12:38:08.494Z,0.20
2022-11-04T12:41:26.289Z,0.10
2022-11-04T12:44:28.495Z,0.20
2022-11-04T12:47:40.895Z,0.30
2022-11-04T12:50:35.496Z,0.20
2022-11-04T12:53:34.507Z,0.20
2022-11-04T12:56:26.027Z,0.10
2022-11-04T12:59:30.478Z,0.20
2022-11-04T13:02:27.648Z,0.20
2022-11-04T13:05:42.401Z,0.20
2022-11-04T13:08:59.086Z,0.17
2022-11-04T13:11:55.544Z,0.17
2022-11-04T13:15:15.043Z,0.10
2022-11-04T13:18:05.687Z,0.10
2022-11-04T13:21:02.539Z,0.10
2022-11-04T13:24:04.714Z,0.20
2022-11-04T13:26:52.140Z,0.20
2022-11-04T13:29:38.554Z,0.38
2022-11-04T13:32:33.552Z,0.10
2022-11-04T13:35:24.105Z,0.10
2022-11-04T13:38:29.949Z,0.45
2022-11-04T13:41:34.006Z,0.20
2022-11-04T13:44:26.844Z,0.10
2022-11-04T13:47:29.656Z,0.10
2022-11-04T13:50:35.652Z,0.10
2022-11-04T13:53:39.882Z,0.10
2022-11-04T13:56:34.318Z,0.30
2022-11-04T13:59:31.990Z,0.10
2022-11-04T14:02:24.588Z,0.10
2022-11-04T14:05:42.780Z,0.15
2022-11-04T14:08:28.789Z,0.20
2022-11-04T14:11:14.824Z,0.17
2022-11-04T14:14:02.989Z,0.20
2022-11-04T14:16:48.375Z,0.20
2022-11-04T14:19:58.392Z,0.15
2022-11-04T14:22:43.969Z,0.10
2022-11-04T14:25:33.710Z,0.10
2022-11-04T14:28:27.688Z,0.70
2022-11-04T14:31:17.740Z,0.10
2022-11-04T14:34:05.809Z,0.20
2022-11-04T14:37:00.592Z,0.20
2022-11-04T14:39:57.188Z,0.10
2022-11-04T14:42:55.794Z,0.17
2022-11-04T14:45:44.041Z,0.10
2022-11-04T14:48:31.364Z,0.25
2022-11-04T14:51:40.127Z,0.20
2022-11-04T14:54:30.325Z,0.38
2022-11-04T14:57:21.075Z,0.30
2022-11-04T15:00:32.005Z,0.20
2022-11-04T15:06:53.760Z,0.15
2022-11-04T15:09:48.905Z,0.10
2022-11-04T15:12:52.839Z,0.10
2022-11-04T15:15:44.764Z,0.10
2022-11-04T15:18:31.398Z,0.20
2022-11-04T15:21:17.285Z,0.10
2022-11-04T15:24:05.924Z,0.10
2022-11-04T15:26:53.576Z,0.20
2022-11-04T15:29:39.341Z,0.10
2022-11-04T15:32:25.880Z,0.25
2022-11-04T15:35:13.499Z,0.20
2022-11-04T15:38:01.813Z,0.30
2022-11-04T15:40:47.209Z,0.22
2022-11-04T15:43:33.360Z,0.10
2022-11-04T15:46:20.053Z,0.10
2022-11-04T15:49:07.375Z,0.10
2022-11-04T15:51:58.704Z,0.10
2022-11-04T15:54:47.875Z,0.10
2022-11-04T15:57:37.831Z,0.10
2022-11-04T16:00:25.887Z,0.10
2022-11-04T16:03:19.589Z,0.10
2022-11-04T16:06:07.613Z,0.15
2022-11-04T16:09:20.205Z,0.20
2022-11-04T16:12:07.879Z,0.10
2022-11-04T16:14:56.026Z,0.43
2022-11-04T16:17:45.226Z,0.20
2022-11-04T16:20:31.893Z,0.10
2022-11-04T16:23:23.590Z,0.20
2022-11-04T16:26:09.469Z,0.10
2022-11-04T16:28:57.361Z,0.32
2022-11-04T16:31:43.762Z,0.10
2022-11-04T16:34:29.353Z,0.10
2022-11-04T16:37:15.025Z,0.25
2022-11-04T16:40:00.831Z,0.52
2022-11-04T16:42:48.118Z,0.30
2022-11-04T16:45:36.290Z,0.10
2022-11-04T16:48:24.719Z,0.10
2022-11-04T16:51:24.321Z,0.52
2022-11-04T16:54:10.468Z,0.47
2022-11-04T16:56:56.694Z,0.17
2022-11-04T16:59:43.331Z,0.30
2022-11-04T17:02:31.101Z,1.85
2022-11-04T17:05:18.263Z,0.40
2022-11-04T17:08:05.350Z,0.80
2022-11-04T17:10:52.042Z,1.05
2022-11-04T17:13:38.084Z,0.30
2022-11-04T17:16:24.646Z,0.43
2022-11-04T17:19:15.526Z,0.22
2022-11-04T17:22:04.362Z,0.47
2022-11-04T17:24:49.915Z,0.80
2022-11-04T17:27:35.291Z,0.10
2022-11-04T17:30:23.166Z,0.47
2022-11-04T17:33:16.097Z,0.43
2022-11-04T17:36:07.423Z,1.15
2022-11-04T17:38:53.775Z,2.00
2022-11-04T17:41:57.683Z,0.43
2022-11-04T17:44:43.180Z,0.95
2022-11-04T17:47:28.743Z,0.10
2022-11-04T17:50:14.310Z,0.10
2022-11-04T17:53:00.017Z,0.10
2022-11-04T17:55:46.459Z,0.15
2022-11-04T17:58:32.441Z,0.15
2022-11-04T18:01:20.844Z,0.80
2022-11-04T18:04:07.413Z,0.25
2022-11-04T18:06:58.422Z,0.30
2022-11-04T18:09:47.049Z,0.40
2022-11-04T18:12:38.453Z,0.65
2022-11-04T18:15:24.682Z,0.68
2022-11-04T18:18:10.424Z,0.10
2022-11-04T18:21:03.730Z,1.55
2022-11-04T18:23:49.387Z,0.55
2022-11-04T18:26:35.281Z,2.70
2022-11-04T18:29:21.548Z,0.20
2022-11-04T18:32:08.170Z,0.70
2022-11-04T18:34:53.752Z,0.75
2022-11-04T18:37:46.770Z,0.25
2022-11-04T18:40:33.647Z,2.10
2022-11-04T18:43:19.428Z,0.10
2022-11-04T18:46:12.904Z,1.05
2022-11-04T18:48:59.309Z,0.10
2022-11-04T18:51:45.088Z,0.20
2022-11-04T18:54:32.016Z,0.60
2022-11-04T18:57:17.762Z,0.28
2022-11-04T19:00:04.347Z,0.47
2022-11-04T19:02:50.067Z,0.10
2022-11-04T19:05:40.947Z,0.10
2022-11-04T19:08:26.953Z,2.25
2022-11-04T19:11:16.856Z,1.35
2022-11-04T19:14:09.390Z,1.13
2022-11-04T19:16:54.994Z,0.10
2022-11-04T19:19:41.279Z,0.20
2022-11-04T19:22:27.087Z,0.10
2022-11-04T19:25:12.606Z,0.10
2022-11-04T19:28:26.765Z,0.15
2022-11-04T19:31:04.179Z,0.32
2022-11-04T19:33:50.844Z,1.42
2022-11-04T19:36:37.417Z,0.10
2022-11-04T19:39:22.901Z,2.63
2022-11-04T19:42:28.382Z,0.38
2022-11-04T19:45:14.013Z,1.13
2022-11-04T19:47:59.704Z,0.13
2022-11-04T19:50:48.304Z,0.25
2022-11-04T19:53:34.086Z,0.20
2022-11-04T19:56:21.093Z,0.73
2022-11-04T19:59:08.137Z,1.02
2022-11-04T20:01:53.831Z,1.23
2022-11-04T20:04:39.517Z,0.60
2022-11-04T20:07:24.924Z,0.68
2022-11-04T20:10:10.750Z,1.35
2022-11-04T20:13:14.505Z,0.32
2022-11-04T20:16:01.351Z,7.13
2022-11-04T20:18:52.294Z,1.35
2022-11-04T20:21:38.563Z,0.40
2022-11-04T20:24:25.274Z,0.80
2022-11-04T20:27:15.124Z,0.10
2022-11-04T20:30:00.665Z,0.55
2022-11-04T20:32:46.830Z,0.20
2022-11-04T20:35:34.716Z,0.13
2022-11-04T20:38:21.410Z,0.32
2022-11-04T20:41:15.465Z,0.25
2022-11-04T20:44:01.437Z,0.30
2022-11-04T20:46:47.072Z,0.20
2022-11-04T20:49:32.625Z,0.20
2022-11-04T20:52:18.632Z,0.20
2022-11-04T20:55:07.738Z,0.45
2022-11-04T20:57:53.291Z,0.20
2022-11-04T21:00:38.999Z,0.10
2022-11-04T21:03:24.455Z,0.82
2022-11-04T21:06:11.428Z,0.20
2022-11-04T21:08:58.363Z,0.10
2022-11-04T21:11:44.065Z,0.25
2022-11-04T21:14:31.568Z,0.20
2022-11-04T21:17:17.281Z,0.10
2022-11-04T21:20:04.910Z,0.55
2022-11-04T21:22:50.736Z,1.92
2022-11-04T21:25:41.480Z,0.20
2022-11-04T21:28:27.346Z,0.17
2022-11-04T21:31:12.965Z,1.80
2022-11-04T21:33:59.025Z,0.30
2022-11-04T21:36:45.648Z,0.22
2022-11-04T21:39:31.267Z,0.10
2022-11-04T21:42:16.632Z,0.10
2022-11-04T21:45:02.368Z,0.28
2022-11-04T21:47:47.940Z,0.20
2022-11-04T21:50:33.748Z,0.85
2022-11-04T21:53:19.576Z,0.10
2022-11-04T21:56:17.437Z,0.20
2022-11-04T21:59:04.645Z,0.55
2022-11-04T22:01:50.709Z,0.30
2022-11-04T22:04:36.580Z,0.75
2022-11-04T22:07:42.548Z,0.10
2022-11-04T22:10:29.158Z,0.22
2022-11-04T22:13:14.834Z,0.40
2022-11-04T22:16:00.832Z,0.85
2022-11-04T22:18:47.422Z,0.17
2022-11-04T22:21:33.579Z,0.20
2022-11-04T22:24:19.515Z,0.20
2022-11-04T22:27:05.381Z,0.75
2022-11-04T22:29:50.863Z,0.10
2022-11-04T22:32:38.220Z,0.20
2022-11-04T22:35:24.984Z,0.10
2022-11-04T22:38:12.606Z,0.22
2022-11-04T22:40:59.696Z,0.20
2022-11-04T22:43:45.442Z,0.38
2022-11-04T22:46:33.214Z,0.30
2022-11-04T22:49:20.865Z,0.10
2022-11-04T22:52:06.712Z,0.40
2022-11-04T22:54:52.032Z,0.10
2022-11-04T22:57:37.673Z,0.22
2022-11-04T23:00:24.912Z,0.15
2022-11-04T23:03:11.216Z,0.75
2022-11-04T23:05:59.090Z,0.20
2022-11-04T23:08:45.311Z,0.63
2022-11-04T23:11:50.535Z,0.30
2022-11-04T23:14:54.559Z,0.20
2022-11-04T23:17:58.809Z,0.22
2022-11-04T23:20:44.333Z,0.40
2022-11-04T23:23:48.296Z,0.10
2022-11-04T23:26:34.143Z,0.20
2022-11-04T23:29:37.942Z,0.20
2022-11-04T23:32:27.252Z,0.40
2022-11-04T23:35:31.928Z,0.77
2022-11-04T23:38:17.970Z,0.38
2022-11-04T23:41:25.292Z,0.20
2022-11-04T23:44:30.626Z,0.22
2022-11-04T23:47:34.926Z,0.25
2022-11-04T23:50:39.765Z,0.10
2022-11-04T23:53:44.593Z,0.20
2022-11-04T23:56:48.612Z,0.30
2022-11-04T23:59:52.475Z,0.20
